createdAt,value
2023-05-02T00:00:04.330Z,98445.34
2023-05-02T00:02:34.116Z,98461.38
2023-05-02T00:05:01.649Z,98460.38
2023-05-02T00:07:30.825Z,98459.25
2023-05-02T00:09:58.595Z,98464.63
2023-05-02T00:12:26.363Z,98453.53
2023-05-02T00:14:54.072Z,98456.34
2023-05-02T00:17:22.038Z,98447.81
2023-05-02T00:19:49.812Z,98457.91
2023-05-02T00:22:17.425Z,98454.41
2023-05-02T00:24:45.071Z,98461.25
2023-05-02T00:27:12.603Z,98448.38
2023-05-02T00:29:41.166Z,98458.91
2023-05-02T00:32:08.796Z,98453.97
2023-05-02T00:34:36.422Z,98452.88
2023-05-02T00:37:03.961Z,98453.66
2023-05-02T00:39:31.458Z,98469.03
2023-05-02T00:42:00.165Z,98474.97
2023-05-02T00:44:28.455Z,98469.25
2023-05-02T00:46:57.007Z,98465.53
2023-05-02T00:49:25.131Z,98457.44
2023-05-02T00:51:54.159Z,98426.63
2023-05-02T00:54:22.022Z,98448.34
2023-05-02T00:56:49.478Z,98449.03
2023-05-02T00:59:18.282Z,98460.50
2023-05-02T01:01:48.810Z,98467.53
2023-05-02T01:04:29.559Z,98434.78
2023-05-02T01:07:23.887Z,98437.00
2023-05-02T01:10:30.177Z,98434.19
2023-05-02T01:13:04.802Z,98445.78
2023-05-02T01:15:35.217Z,98429.81
2023-05-02T01:18:04.713Z,98447.44
2023-05-02T01:20:37.282Z,98431.19
2023-05-02T01:23:14.334Z,98439.38
2023-05-02T01:26:03.964Z,98428.91
2023-05-02T01:29:00.004Z,98449.44
2023-05-02T01:31:32.355Z,98435.97
2023-05-02T01:34:01.311Z,98433.19
2023-05-02T01:36:31.918Z,98439.78
2023-05-02T01:39:02.151Z,98437.13
2023-05-02T01:41:32.432Z,98426.41
2023-05-02T01:44:02.505Z,98423.81
2023-05-02T01:46:37.013Z,98425.06
2023-05-02T01:49:07.704Z,98417.84
2023-05-02T01:51:41.439Z,98441.88
2023-05-02T01:54:10.871Z,98434.31
2023-05-02T01:56:40.029Z,98408.78
2023-05-02T01:59:17.632Z,98434.63
2023-05-02T02:01:46.541Z,98419.16
2023-05-02T02:04:16.580Z,98414.34
2023-05-02T02:06:48.907Z,98417.47
2023-05-02T02:09:16.512Z,98434.50
2023-05-02T02:11:52.969Z,98429.22
2023-05-02T02:14:28.846Z,98424.84
2023-05-02T02:29:47.451Z,98426.66
2023-05-02T02:32:15.207Z,98418.59
2023-05-02T02:34:42.826Z,98426.50
2023-05-02T02:37:26.862Z,98426.97
2023-05-02T02:40:03.910Z,98419.56
2023-05-02T02:42:48.559Z,98416.72
2023-05-02T02:45:28.017Z,98435.22
2023-05-02T02:48:22.932Z,98429.44
2023-05-02T02:51:15.136Z,98445.72
2023-05-02T02:53:50.475Z,98439.38
2023-05-02T02:56:27.883Z,98436.06
2023-05-02T02:59:01.079Z,98431.56
2023-05-02T03:01:32.809Z,98439.38
2023-05-02T03:04:04.715Z,98450.31
2023-05-02T03:06:32.730Z,98441.75
2023-05-02T03:09:01.956Z,98431.97
2023-05-02T03:11:30.847Z,98455.72
2023-05-02T03:13:59.069Z,98444.28
2023-05-02T03:16:40.473Z,98443.72
2023-05-02T03:19:12.528Z,98446.16
2023-05-02T03:21:40.046Z,98455.66
2023-05-02T03:24:13.825Z,98469.34
2023-05-02T03:26:42.027Z,98456.50
2023-05-02T03:29:12.319Z,98462.81
2023-05-02T03:31:43.020Z,98455.09
2023-05-02T03:34:10.566Z,98456.78
2023-05-02T03:36:39.111Z,98445.00
2023-05-02T03:39:07.096Z,98446.06
2023-05-02T03:41:36.112Z,98456.56
2023-05-02T03:44:08.203Z,98451.50
2023-05-02T03:46:36.370Z,98449.69
2023-05-02T03:49:07.775Z,98435.09
2023-05-02T03:51:36.330Z,98432.72
2023-05-02T03:54:04.498Z,98440.94
2023-05-02T03:56:33.622Z,98432.66
2023-05-02T03:59:15.168Z,98441.66
2023-05-02T04:01:43.590Z,98436.69
2023-05-02T04:04:14.008Z,98435.72
2023-05-02T04:06:47.677Z,98419.81
2023-05-02T04:09:16.520Z,98432.19
2023-05-02T04:11:52.291Z,98443.03
2023-05-02T04:14:19.943Z,98435.16
2023-05-02T04:16:52.565Z,98432.59
2023-05-02T04:19:35.450Z,98435.75
2023-05-02T04:22:04.099Z,98427.31
2023-05-02T04:24:35.725Z,98428.47
2023-05-02T04:27:03.820Z,98428.16
2023-05-02T04:29:32.150Z,98416.34
2023-05-02T04:32:00.004Z,98429.19
2023-05-02T04:34:29.647Z,98424.75
2023-05-02T04:36:57.191Z,98425.78
2023-05-02T04:39:26.189Z,98423.09
2023-05-02T04:42:00.257Z,98425.03
2023-05-02T04:44:29.378Z,98430.88
2023-05-02T04:46:57.843Z,98422.84
2023-05-02T04:49:25.343Z,98422.22
2023-05-02T04:51:53.534Z,98419.47
2023-05-02T04:54:22.785Z,98423.97
2023-05-02T04:56:50.686Z,98432.66
2023-05-02T04:59:19.473Z,98431.84
2023-05-02T05:01:47.138Z,98421.91
2023-05-02T05:04:14.914Z,98419.09
2023-05-02T05:06:42.887Z,98414.38
2023-05-02T05:09:11.097Z,98421.31
2023-05-02T05:11:39.688Z,98422.56
2023-05-02T05:14:07.832Z,98411.03
2023-05-02T05:16:38.309Z,98426.19
2023-05-02T05:19:05.838Z,98410.22
2023-05-02T05:21:33.738Z,98406.75
2023-05-02T05:24:03.001Z,98415.28
2023-05-02T05:26:30.489Z,98412.31
2023-05-02T05:28:59.070Z,98405.84
2023-05-02T05:31:30.926Z,98402.72
2023-05-02T05:34:01.677Z,98402.50
2023-05-02T05:36:31.660Z,98415.66
2023-05-02T05:38:59.150Z,98408.91
2023-05-02T05:41:27.117Z,98407.84
2023-05-02T05:44:01.615Z,98420.56
2023-05-02T05:46:30.547Z,98409.63
2023-05-02T05:48:58.746Z,98411.72
2023-05-02T05:51:28.807Z,98411.91
2023-05-02T05:53:59.165Z,98413.66
2023-05-02T05:56:27.283Z,98420.03
2023-05-02T05:59:01.154Z,98407.94
2023-05-02T06:01:28.624Z,98405.22
2023-05-02T06:03:56.981Z,98409.69
2023-05-02T06:06:24.487Z,98405.97
2023-05-02T06:08:52.084Z,98417.78
2023-05-02T06:11:21.138Z,98402.59
2023-05-02T06:13:48.703Z,98414.47
2023-05-02T06:16:16.654Z,98412.31
2023-05-02T06:18:50.825Z,98414.41
2023-05-02T06:21:18.300Z,98411.75
2023-05-02T06:23:46.327Z,98406.03
2023-05-02T06:26:13.831Z,98403.41
2023-05-02T06:28:41.396Z,98409.16
2023-05-02T06:31:09.027Z,98407.72
2023-05-02T06:33:37.139Z,98395.88
2023-05-02T06:36:04.674Z,98413.19
2023-05-02T06:38:32.228Z,98404.47
2023-05-02T06:40:59.734Z,98394.31
2023-05-02T06:43:27.701Z,98404.16
2023-05-02T06:45:56.597Z,98404.88
2023-05-02T06:48:24.038Z,98392.56
2023-05-02T06:50:54.615Z,98410.00
2023-05-02T06:53:22.068Z,98416.16
2023-05-02T06:55:50.079Z,98399.97
2023-05-02T06:58:17.657Z,98400.03
2023-05-02T07:00:45.172Z,98398.38
2023-05-02T07:03:12.927Z,98398.91
2023-05-02T07:05:40.513Z,98398.38
2023-05-02T07:08:08.124Z,98413.34
2023-05-02T07:10:35.638Z,98396.84
2023-05-02T07:13:03.223Z,98402.00
2023-05-02T07:15:30.727Z,98386.22
2023-05-02T07:17:58.175Z,98394.03
2023-05-02T07:20:25.973Z,98383.97
2023-05-02T07:22:53.455Z,98408.44
2023-05-02T07:25:20.947Z,98393.88
2023-05-02T07:27:48.460Z,98396.38
2023-05-02T07:30:16.038Z,98385.88
2023-05-02T07:32:43.478Z,98416.06
2023-05-02T07:35:10.900Z,98414.25
2023-05-02T07:37:38.506Z,98410.06
2023-05-02T07:40:07.747Z,98416.19
2023-05-02T07:42:36.570Z,98408.81
2023-05-02T07:45:04.162Z,98387.00
2023-05-02T07:47:32.562Z,98388.31
2023-05-02T07:50:00.523Z,98388.75
2023-05-02T07:52:28.374Z,98387.84
2023-05-02T07:54:55.958Z,98378.97
2023-05-02T07:57:24.037Z,98382.06
2023-05-02T07:59:51.599Z,98384.34
2023-05-02T08:02:21.093Z,98383.41
2023-05-02T08:04:49.426Z,98375.69
2023-05-02T08:07:17.317Z,98382.31
2023-05-02T08:09:44.858Z,98392.63
2023-05-02T08:12:12.416Z,98395.34
2023-05-02T08:14:39.802Z,98411.00
2023-05-02T08:17:07.328Z,98420.88
2023-05-02T08:19:34.859Z,98420.50
2023-05-02T08:22:02.353Z,98410.69
2023-05-02T08:24:31.296Z,98414.63
2023-05-02T08:26:58.795Z,98396.50
2023-05-02T08:29:26.335Z,98405.09
2023-05-02T08:31:53.878Z,98411.34
2023-05-02T08:34:21.568Z,98409.91
2023-05-02T08:36:49.086Z,98398.34
2023-05-02T08:39:17.324Z,98393.00
2023-05-02T08:41:45.226Z,98393.78
2023-05-02T08:44:12.693Z,98391.91
2023-05-02T08:46:42.367Z,98396.31
2023-05-02T08:49:16.211Z,98410.19
2023-05-02T08:51:45.726Z,98400.41
2023-05-02T08:54:17.545Z,98399.38
2023-05-02T08:56:46.406Z,98404.22
2023-05-02T08:59:13.825Z,98391.63
2023-05-02T09:01:46.538Z,98399.91
2023-05-02T09:04:15.123Z,98389.00
2023-05-02T09:06:42.868Z,98379.47
2023-05-02T09:09:10.501Z,98387.38
2023-05-02T09:11:38.368Z,98384.47
2023-05-02T09:14:15.734Z,98401.47
2023-05-02T09:16:43.630Z,98407.13
2023-05-02T09:19:11.830Z,98412.81
2023-05-02T09:21:41.542Z,98411.16
2023-05-02T09:24:35.465Z,98394.41
2023-05-02T09:27:04.797Z,98402.78
2023-05-02T09:29:38.269Z,98392.97
2023-05-02T09:32:07.248Z,98396.38
2023-05-02T09:34:35.209Z,98393.72
2023-05-02T09:37:05.818Z,98405.28
2023-05-02T09:39:33.410Z,98401.66
2023-05-02T09:42:01.796Z,98412.34
2023-05-02T09:44:37.828Z,98415.69
2023-05-02T09:47:07.170Z,98393.25
2023-05-02T09:49:47.113Z,98408.06
2023-05-02T09:52:17.007Z,98400.63
2023-05-02T09:54:47.094Z,98393.50
2023-05-02T09:57:14.709Z,98396.16
2023-05-02T09:59:53.187Z,98401.00
2023-05-02T10:02:22.194Z,98380.34
2023-05-02T10:04:51.033Z,98380.13
2023-05-02T10:07:18.616Z,98375.28
2023-05-02T10:09:47.674Z,98388.91
2023-05-02T10:12:17.139Z,98386.97
2023-05-02T10:14:57.022Z,98370.44
2023-05-02T10:17:42.525Z,98387.69
2023-05-02T10:20:11.985Z,98383.72
2023-05-02T10:22:40.572Z,98369.72
2023-05-02T10:25:08.628Z,98392.94
2023-05-02T10:27:38.004Z,98377.41
2023-05-02T10:30:06.822Z,98380.38
2023-05-02T10:32:35.051Z,98381.25
2023-05-02T10:35:07.225Z,98384.47
2023-05-02T10:37:37.305Z,98378.81
2023-05-02T10:40:06.629Z,98381.38
2023-05-02T10:42:40.570Z,98375.31
2023-05-02T10:45:37.940Z,98369.06
2023-05-02T10:48:23.412Z,98365.63
2023-05-02T10:50:59.056Z,98361.47
2023-05-02T10:53:30.486Z,98352.44
2023-05-02T10:56:23.003Z,98360.38
2023-05-02T10:58:52.366Z,98362.72
2023-05-02T11:01:29.082Z,98366.50
2023-05-02T11:03:59.739Z,98366.94
2023-05-02T11:06:29.238Z,98357.13
2023-05-02T11:09:21.584Z,98343.97
2023-05-02T11:11:52.806Z,98342.94
2023-05-02T11:14:26.943Z,98361.78
2023-05-02T11:17:06.584Z,98333.94
2023-05-02T11:19:46.189Z,98339.03
2023-05-02T11:22:19.980Z,98338.22
2023-05-02T11:24:48.729Z,98341.31
2023-05-02T11:27:38.624Z,98346.78
2023-05-02T11:30:07.344Z,98323.03
2023-05-02T11:32:47.901Z,98346.97
2023-05-02T11:35:23.270Z,98319.19
2023-05-02T11:37:58.294Z,98314.91
2023-05-02T11:40:27.449Z,98316.00
2023-05-02T11:42:55.697Z,98311.81
2023-05-02T11:45:32.753Z,98320.72
2023-05-02T11:48:00.354Z,98316.75
2023-05-02T11:50:30.592Z,98315.41
2023-05-02T11:52:58.929Z,98311.81
2023-05-02T11:55:27.487Z,98334.16
2023-05-02T11:57:55.894Z,98336.22
2023-05-02T12:00:28.423Z,98339.84
2023-05-02T12:02:56.149Z,98326.56
2023-05-02T12:05:30.650Z,98334.09
2023-05-02T12:07:58.327Z,98321.84
2023-05-02T12:10:36.799Z,98309.88
2023-05-02T12:13:06.762Z,98316.75
2023-05-02T12:15:34.363Z,98317.97
2023-05-02T12:18:02.226Z,98300.19
2023-05-02T12:20:29.946Z,98323.88
2023-05-02T12:22:57.891Z,98312.53
2023-05-02T12:25:25.374Z,98318.50
2023-05-02T12:28:03.084Z,98314.28
2023-05-02T12:30:32.087Z,98313.69
2023-05-02T12:33:02.019Z,98315.66
2023-05-02T12:35:31.032Z,98314.91
2023-05-02T12:38:17.780Z,98310.50
2023-05-02T12:40:50.916Z,98305.22
2023-05-02T12:43:19.242Z,98296.38
2023-05-02T12:45:48.806Z,98304.66
2023-05-02T12:48:24.831Z,98308.00
2023-05-02T12:50:53.560Z,98292.19
2023-05-02T12:53:44.075Z,98300.47
2023-05-02T12:56:13.576Z,98284.72
2023-05-02T12:58:48.838Z,98307.97
2023-05-02T13:01:16.661Z,98311.78
2023-05-02T13:03:44.732Z,98311.47
2023-05-02T13:06:12.241Z,98286.69
2023-05-02T13:08:39.807Z,98296.06
2023-05-02T13:11:07.349Z,98283.72
2023-05-02T13:13:35.806Z,98290.84
2023-05-02T13:16:03.807Z,98286.88
2023-05-02T13:18:31.504Z,98287.75
2023-05-02T13:20:58.964Z,98309.22
2023-05-02T13:23:26.636Z,98328.47
2023-05-02T13:25:54.105Z,98290.84
2023-05-02T13:28:21.675Z,98288.50
2023-05-02T13:30:49.136Z,98292.50
2023-05-02T13:33:16.716Z,98294.41
2023-05-02T13:35:44.131Z,98297.06
2023-05-02T13:38:11.946Z,98299.22
2023-05-02T13:40:39.382Z,98292.41
2023-05-02T13:43:08.214Z,98296.47
2023-05-02T13:45:36.015Z,98289.31
2023-05-02T13:48:03.650Z,98289.13
2023-05-02T13:50:31.191Z,98296.13
2023-05-02T13:52:58.669Z,98301.19
2023-05-02T13:55:26.536Z,98264.22
2023-05-02T13:57:54.301Z,98291.06
2023-05-02T14:00:21.862Z,98288.56
2023-05-02T14:02:49.345Z,98287.69
2023-05-02T14:05:16.916Z,98286.31
2023-05-02T14:07:44.603Z,98264.84
2023-05-02T14:10:12.220Z,98279.09
2023-05-02T14:12:39.917Z,98285.03
2023-05-02T14:15:08.101Z,98288.31
2023-05-02T14:17:35.694Z,98304.72
2023-05-02T14:20:03.622Z,98293.63
2023-05-02T14:22:31.452Z,98300.44
2023-05-02T14:24:58.843Z,98279.03
2023-05-02T14:27:26.581Z,98283.50
2023-05-02T14:29:54.026Z,98292.09
2023-05-02T14:32:22.123Z,98299.63
2023-05-02T14:34:49.618Z,98301.38
2023-05-02T14:37:17.134Z,98287.13
2023-05-02T14:39:47.915Z,98307.63
2023-05-02T14:42:16.685Z,98297.75
2023-05-02T14:44:44.780Z,98306.34
2023-05-02T14:47:12.286Z,98294.78
2023-05-02T14:49:39.815Z,98304.06
2023-05-02T14:52:07.606Z,98295.66
2023-05-02T14:54:35.257Z,98301.84
2023-05-02T14:57:03.954Z,98295.72
2023-05-02T14:59:31.935Z,98306.13
2023-05-02T15:01:59.805Z,98315.69
2023-05-02T15:04:28.332Z,98294.72
2023-05-02T15:06:57.045Z,98300.31
2023-05-02T15:09:26.817Z,98296.31
2023-05-02T15:11:54.313Z,98297.00
2023-05-02T15:14:22.055Z,98313.53
2023-05-02T15:16:49.967Z,98298.34
2023-05-02T15:19:17.571Z,98313.34
2023-05-02T15:21:45.046Z,98295.66
2023-05-02T15:24:13.280Z,98321.22
2023-05-02T15:26:41.393Z,98310.72
2023-05-02T15:29:08.855Z,98300.16
2023-05-02T15:31:36.645Z,98313.25
2023-05-02T15:34:04.213Z,98328.00
2023-05-02T15:36:32.809Z,98325.94
2023-05-02T15:39:00.214Z,98336.53
2023-05-02T15:41:28.106Z,98334.25
2023-05-02T15:43:55.690Z,98333.50
2023-05-02T15:46:23.552Z,98340.47
2023-05-02T15:48:51.395Z,98333.53
2023-05-02T15:51:19.212Z,98334.81
2023-05-02T15:53:50.355Z,98343.13
2023-05-02T15:56:18.044Z,98339.56
2023-05-02T15:58:46.819Z,98344.34
2023-05-02T16:01:14.408Z,98309.81
2023-05-02T16:03:42.304Z,98339.44
2023-05-02T16:06:14.720Z,98350.41
2023-05-02T16:08:44.312Z,98346.47
2023-05-02T16:11:11.828Z,98344.22
2023-05-02T16:13:39.358Z,98337.22
2023-05-02T16:16:08.075Z,98357.16
2023-05-02T16:18:35.626Z,98339.56
2023-05-02T16:21:05.749Z,98358.88
2023-05-02T16:23:33.258Z,98346.09
2023-05-02T16:26:01.984Z,98350.78
2023-05-02T16:28:30.070Z,98348.78
2023-05-02T16:30:57.791Z,98347.56
2023-05-02T16:33:30.338Z,98339.13
2023-05-02T16:36:02.840Z,98359.59
2023-05-02T16:38:30.956Z,98342.97
2023-05-02T16:40:58.518Z,98351.31
2023-05-02T16:43:26.354Z,98356.03
2023-05-02T16:46:07.211Z,98348.72
2023-05-02T16:48:35.350Z,98348.06
2023-05-02T16:51:04.264Z,98360.25
2023-05-02T16:53:32.487Z,98357.75
2023-05-02T16:56:00.192Z,98355.09
2023-05-02T16:58:30.851Z,98363.13
2023-05-02T17:01:00.622Z,98362.97
2023-05-02T17:03:29.817Z,98362.75
2023-05-02T17:06:02.031Z,98372.19
2023-05-02T17:08:29.937Z,98362.09
2023-05-02T17:10:57.782Z,98364.66
2023-05-02T17:13:25.304Z,98371.28
2023-05-02T17:15:54.002Z,98364.78
2023-05-02T17:18:22.189Z,98376.84
2023-05-02T17:20:50.278Z,98360.50
2023-05-02T17:23:18.036Z,98371.81
2023-05-02T17:25:45.778Z,98365.94
2023-05-02T17:28:13.337Z,98362.84
2023-05-02T17:30:41.216Z,98358.53
2023-05-02T17:33:08.875Z,98365.19
2023-05-02T17:35:36.620Z,98357.03
2023-05-02T17:38:04.136Z,98367.31
2023-05-02T17:40:31.614Z,98360.66
2023-05-02T17:42:59.557Z,98364.25
2023-05-02T17:45:29.402Z,98365.69
2023-05-02T17:47:57.167Z,98363.91
2023-05-02T17:50:24.773Z,98357.34
2023-05-02T17:52:52.278Z,98363.66
2023-05-02T17:55:20.050Z,98363.22
2023-05-02T17:57:47.761Z,98362.63
2023-05-02T18:00:15.737Z,98359.81
2023-05-02T18:02:44.500Z,98356.69
2023-05-02T18:05:13.004Z,98364.16
2023-05-02T18:07:40.544Z,98359.91
2023-05-02T18:10:08.339Z,98357.19
2023-05-02T18:12:36.382Z,98357.53
2023-05-02T18:15:05.753Z,98366.75
2023-05-02T18:17:33.835Z,98359.41
2023-05-02T18:20:04.695Z,98357.84
2023-05-02T18:22:35.876Z,98360.63
2023-05-02T18:25:03.723Z,98351.97
2023-05-02T18:27:31.604Z,98355.53
2023-05-02T18:29:59.075Z,98350.16
2023-05-02T18:32:26.993Z,98350.56
2023-05-02T18:34:54.879Z,98354.84
2023-05-02T18:37:27.923Z,98360.78
2023-05-02T18:39:55.494Z,98351.75
2023-05-02T18:42:23.045Z,98353.44
2023-05-02T18:44:50.551Z,98346.38
2023-05-02T18:47:18.047Z,98350.94
2023-05-02T18:49:46.140Z,98347.00
2023-05-02T18:52:13.808Z,98359.91
2023-05-02T18:54:41.271Z,98347.53
2023-05-02T18:57:08.876Z,98354.09
2023-05-02T18:59:36.443Z,98348.69
2023-05-02T19:02:04.017Z,98353.69
2023-05-02T19:04:32.195Z,98366.66
2023-05-02T19:06:59.815Z,98356.97
2023-05-02T19:09:27.245Z,98346.44
2023-05-02T19:11:55.389Z,98349.22
2023-05-02T19:14:22.832Z,98351.91
2023-05-02T19:16:51.192Z,98345.22
2023-05-02T19:19:18.796Z,98350.22
2023-05-02T19:21:48.352Z,98355.34
2023-05-02T19:24:15.876Z,98353.44
2023-05-02T19:26:43.332Z,98348.34
2023-05-02T19:29:11.071Z,98354.69
2023-05-02T19:31:39.930Z,98349.22
2023-05-02T19:34:07.369Z,98337.53
2023-05-02T19:36:34.848Z,98346.50
2023-05-02T19:39:02.364Z,98344.22
2023-05-02T19:41:29.887Z,98343.13
2023-05-02T19:43:59.183Z,98339.53
2023-05-02T19:46:27.171Z,98346.16
2023-05-02T19:48:54.736Z,98339.94
2023-05-02T19:51:25.729Z,98343.88
2023-05-02T19:53:54.133Z,98332.53
2023-05-02T19:56:21.967Z,98338.41
2023-05-02T19:58:49.441Z,98345.00
2023-05-02T20:01:16.885Z,98344.34
2023-05-02T20:03:44.621Z,98338.50
2023-05-02T20:06:12.246Z,98347.09
2023-05-02T20:08:40.030Z,98351.75
2023-05-02T20:11:07.506Z,98347.50
2023-05-02T20:13:34.931Z,98345.50
2023-05-02T20:16:02.943Z,98343.56
2023-05-02T20:18:30.317Z,98338.09
2023-05-02T20:20:58.581Z,98347.09
2023-05-02T20:23:26.027Z,98348.25
2023-05-02T20:25:53.578Z,98353.72
2023-05-02T20:28:21.076Z,98350.22
2023-05-02T20:30:48.591Z,98351.38
2023-05-02T20:33:17.682Z,98351.41
2023-05-02T20:35:45.988Z,98360.34
2023-05-02T20:38:13.662Z,98352.16
2023-05-02T20:40:42.916Z,98332.38
2023-05-02T20:43:10.403Z,98342.13
2023-05-02T20:45:39.132Z,98346.41
2023-05-02T20:48:06.804Z,98342.19
2023-05-02T20:50:34.312Z,98353.88
2023-05-02T20:53:01.831Z,98346.53
2023-05-02T20:55:29.397Z,98354.72
2023-05-02T20:57:57.024Z,98351.19
2023-05-02T21:00:24.739Z,98351.19
2023-05-02T21:02:52.280Z,98348.06
2023-05-02T21:05:19.828Z,98348.50
2023-05-02T21:07:47.317Z,98351.19
2023-05-02T21:10:15.291Z,98346.50
2023-05-02T21:12:42.758Z,98343.41
2023-05-02T21:15:10.663Z,98348.06
2023-05-02T21:17:39.411Z,98350.78
2023-05-02T21:20:07.865Z,98355.88
2023-05-02T21:22:35.234Z,98352.81
2023-05-02T21:25:02.777Z,98352.81
2023-05-02T21:27:30.633Z,98343.84
2023-05-02T21:29:58.238Z,98352.06
2023-05-02T21:32:26.189Z,98348.94
2023-05-02T21:34:53.698Z,98347.75
2023-05-02T21:37:21.199Z,98350.50
2023-05-02T21:39:48.668Z,98357.50
2023-05-02T21:42:16.188Z,98353.63
2023-05-02T21:44:43.705Z,98345.03
2023-05-02T21:47:11.371Z,98358.31
2023-05-02T21:49:38.888Z,98362.22
2023-05-02T21:52:06.375Z,98350.16
2023-05-02T21:54:34.088Z,98354.81
2023-05-02T21:57:03.031Z,98361.84
2023-05-02T21:59:30.560Z,98350.94
2023-05-02T22:01:57.976Z,98354.44
2023-05-02T22:04:25.460Z,98353.28
2023-05-02T22:06:53.641Z,98356.81
2023-05-02T22:09:21.946Z,98359.94
2023-05-02T22:11:49.409Z,98364.59
2023-05-02T22:14:16.944Z,98359.56
2023-05-02T22:16:44.480Z,98359.94
2023-05-02T22:19:14.917Z,98355.63
2023-05-02T22:21:42.739Z,98356.44
2023-05-02T22:24:10.205Z,98356.41
2023-05-02T22:26:37.697Z,98354.47
2023-05-02T22:29:05.275Z,98363.06
2023-05-02T22:31:32.755Z,98356.41
2023-05-02T22:34:00.324Z,98368.09
2023-05-02T22:36:28.052Z,98361.47
2023-05-02T22:38:55.736Z,98357.97
2023-05-02T22:41:23.230Z,98367.72
2023-05-02T22:43:50.628Z,98367.31
2023-05-02T22:46:18.855Z,98369.25
2023-05-02T22:48:46.422Z,98369.28
2023-05-02T22:51:14.209Z,98372.78
2023-05-02T22:53:42.262Z,98366.56
2023-05-02T22:56:09.811Z,98359.94
2023-05-02T22:58:37.319Z,98370.47
2023-05-02T23:01:04.963Z,98370.47
2023-05-02T23:03:32.743Z,98376.28
2023-05-02T23:06:00.444Z,98377.06
2023-05-02T23:08:27.929Z,98380.97
2023-05-02T23:10:56.280Z,98374.72
2023-05-02T23:13:24.015Z,98377.84
2023-05-02T23:15:55.137Z,98387.97
2023-05-02T23:18:23.151Z,98388.72
2023-05-02T23:20:50.987Z,98378.63
2023-05-02T23:23:18.548Z,98382.91
2023-05-02T23:25:46.105Z,98387.94
2023-05-02T23:28:13.636Z,98393.78
2023-05-02T23:30:41.608Z,98389.13
2023-05-02T23:33:09.397Z,98387.19
2023-05-02T23:35:36.891Z,98383.28
2023-05-02T23:38:08.199Z,98386.78
2023-05-02T23:40:35.896Z,98378.25
2023-05-02T23:43:05.503Z,98381.72
2023-05-02T23:45:33.432Z,98382.91
2023-05-02T23:48:00.954Z,98383.66
2023-05-02T23:50:28.836Z,98379.75
2023-05-02T23:52:56.417Z,98379.78
2023-05-02T23:55:23.975Z,98391.06
2023-05-02T23:57:51.411Z,98384.84
